Eden, Indiana
Current Conditions -  °F | °C
As of 11:35 PM on Sunday 25 Jan 2015 (Local Time) from KMQJ Reporting Station
Overcast Overcast  
Wind Chill:   Ceiling: 1600
Heat Index: 21°   Visibility: 10mi
Dew Point: 14°   Wind: 21mph
Humidity: 74%   Direction: 30°NNE
Pressure: 29.83"   Gusts: NA
Location:  39.7974°N, 85.7653°W
Report Text: KMQJ 260435Z AUTO 03018KT 10SM BKN016 OVC025 M06/M10 A2983 RMK AO1
Loading
Personal Weather Stations






























Interactive Weather Map New forecast layout! Learn more

10-Day Weather Forecast

Advertisements
Track Severe Weather on mobile